Time;durP1;ratioP1;P1;durP2;ratioP2;P2;SDS_P1;SDS_P2;PMS_P1;PMS_P2;Temp;Humidity;BMP_temperature;BMP_pressure;BME280_temperature;BME280_humidity;BME280_pressure;Samples;Min_cycle;Max_cycle;Signal;HPM_P1;HPM_P2
2021/03/21 00:00:41;;;;;;;10.73;9.30;;;;;;;4.77;70.54;101286.88;5027991;28;20268;-68
2021/03/21 00:03:07;;;;;;;10.73;9.33;;;;;;;4.78;70.69;101292.09;5019439;28;20310;-67
2021/03/21 00:05:34;;;;;;;11.87;9.87;;;;;;;4.77;71.17;101285.09;5021840;28;20682;-68
2021/03/21 00:08:03;;;;;;;13.70;9.40;;;;;;;4.78;71.68;101276.28;5028878;28;20671;-67
2021/03/21 00:10:30;;;;;;;10.90;8.37;;;;;;;4.79;72.02;101269.22;5024608;28;20754;-68
2021/03/21 00:12:57;;;;;;;9.60;7.90;;;;;;;4.80;71.78;101282.38;5022422;28;20818;-67
2021/03/21 00:15:24;;;;;;;10.07;8.47;;;;;;;4.81;72.69;101276.19;5027758;28;20241;-65
2021/03/21 00:17:51;;;;;;;9.53;8.10;;;;;;;4.81;72.45;101278.81;5029638;28;20198;-67
2021/03/21 00:20:20;;;;;;;11.43;8.67;;;;;;;4.81;73.02;101270.06;5029393;28;20210;-69
2021/03/21 00:22:46;;;;;;;6.70;5.70;;;;;;;4.82;73.13;101264.72;5020776;28;20244;-68
2021/03/21 00:25:15;;;;;;;4.60;3.93;;;;;;;4.83;73.38;101260.31;5022740;28;20214;-68
2021/03/21 00:27:42;;;;;;;3.43;3.13;;;;;;;4.86;73.55;101255.78;5028341;28;20198;-67
2021/03/21 00:30:11;;;;;;;3.17;2.87;;;;;;;4.87;74.09;101252.22;5027859;28;20202;-69
2021/03/21 00:32:37;;;;;;;2.87;2.67;;;;;;;4.89;73.83;101253.06;5023929;28;20225;-66
2021/03/21 00:35:06;;;;;;;3.57;3.07;;;;;;;4.90;74.14;101240.72;5028775;28;20735;-67
2021/03/21 00:37:32;;;;;;;3.10;2.80;;;;;;;4.92;74.41;101232.75;5029615;28;20299;-68
2021/03/21 00:39:58;;;;;;;3.60;3.23;;;;;;;4.93;74.09;101232.72;5026635;28;20202;-68
2021/03/21 00:42:24;;;;;;;3.67;3.37;;;;;;;4.95;74.28;101224.75;5018528;28;20293;-65
2021/03/21 00:44:50;;;;;;;3.63;3.33;;;;;;;4.96;74.60;101226.47;5030033;28;20202;-66
2021/03/21 00:47:16;;;;;;;3.27;2.97;;;;;;;4.96;74.36;101224.72;5019636;28;20260;-67
2021/03/21 00:49:43;;;;;;;3.33;2.70;;;;;;;4.97;74.79;101215.88;5028360;28;20219;-68
2021/03/21 00:52:10;;;;;;;2.50;2.30;;;;;;;4.97;75.15;101210.59;5029276;28;20312;-67
2021/03/21 00:54:36;;;;;;;2.40;2.20;;;;;;;4.97;74.99;101202.69;5027629;28;20222;-67
2021/03/21 00:57:02;;;;;;;2.50;2.30;;;;;;;4.98;74.94;101198.28;5025640;28;20210;-68
2021/03/21 00:59:28;;;;;;;2.43;2.23;;;;;;;4.97;75.04;101194.75;5028395;28;20209;-67
2021/03/21 01:01:55;;;;;;;2.63;2.30;;;;;;;4.97;74.99;101186.84;5028645;28;20401;-67
2021/03/21 01:04:21;;;;;;;2.30;2.10;;;;;;;4.98;74.99;101195.63;5026028;28;20210;-66
2021/03/21 01:06:47;;;;;;;1.90;1.80;;;;;;;4.98;74.86;101185.06;5023211;28;20313;-67
2021/03/21 01:09:15;;;;;;;2.73;2.10;;;;;;;4.99;75.20;101182.38;5025001;28;20288;-68
2021/03/21 01:11:42;;;;;;;2.53;2.33;;;;;;;5.00;75.44;101178.84;5027912;28;20235;-68
2021/03/21 01:14:09;;;;;;;2.40;2.20;;;;;;;4.99;75.06;101171.81;5024926;28;20226;-67
2021/03/21 01:16:38;;;;;;;2.83;2.00;;;;;;;5.01;75.54;101174.41;5022850;28;20198;-71
2021/03/21 01:19:05;;;;;;;2.47;2.27;;;;;;;5.02;75.41;101165.56;5022860;28;20694;-65
2021/03/21 01:21:33;;;;;;;2.60;2.20;;;;;;;5.01;75.58;101167.38;5024331;28;20198;-67
2021/03/21 01:23:59;;;;;;;3.70;2.67;;;;;;;5.00;75.86;101163.00;5022653;28;20214;-67
2021/03/21 01:26:28;;;;;;;3.13;2.27;;;;;;;5.01;75.58;101163.84;5028500;28;20656;-66
2021/03/21 01:28:56;;;;;;;3.00;2.60;;;;;;;5.01;75.69;101164.72;5027386;28;20203;-67
2021/03/21 01:31:23;;;;;;;3.27;2.67;;;;;;;5.00;75.74;101156.84;5029112;28;20202;-66
2021/03/21 01:33:50;;;;;;;2.80;2.50;;;;;;;4.99;76.17;101140.16;5029231;28;20242;-65
2021/03/21 01:36:19;;;;;;;3.13;2.83;;;;;;;4.99;75.85;101144.56;5025529;28;20211;-66
2021/03/21 01:38:45;;;;;;;3.80;2.70;;;;;;;4.99;76.40;101147.19;5031137;28;20198;-69
2021/03/21 01:41:15;;;;;;;2.37;2.17;;;;;;;4.98;76.82;101138.41;5033268;28;20206;-66
2021/03/21 01:43:42;;;;;;;3.07;2.80;;;;;;;4.98;76.70;101129.63;5033403;28;20787;-67
2021/03/21 01:46:13;;;;;;;3.07;2.77;;;;;;;4.97;76.78;101125.28;5032889;28;20228;-67
2021/03/21 01:48:45;;;;;;;2.83;2.43;;;;;;;4.97;76.88;101112.06;5033898;28;20220;-67
2021/03/21 01:51:15;;;;;;;2.83;2.50;;;;;;;4.95;77.16;101117.41;5031236;28;20209;-69
2021/03/21 01:53:45;;;;;;;3.90;3.03;;;;;;;4.95;77.45;101109.47;5030834;28;20629;-67
2021/03/21 01:56:12;;;;;;;3.03;2.60;;;;;;;4.93;77.57;101105.16;5031337;28;20209;-68
2021/03/21 01:58:44;;;;;;;4.13;3.10;;;;;;;4.92;77.66;101100.78;5031124;28;20679;-68
2021/03/21 02:01:14;;;;;;;3.17;2.73;;;;;;;4.91;77.60;101089.38;5027979;28;20213;-70
2021/03/21 02:03:40;;;;;;;2.73;2.50;;;;;;;4.89;77.83;101091.19;5033460;28;20300;-67
2021/03/21 02:06:20;;;;;;;2.83;2.63;;;;;;;4.87;78.10;101078.03;5027047;28;20293;-67
2021/03/21 02:08:51;;;;;;;2.67;2.47;;;;;;;4.88;78.61;101076.28;5033477;28;20584;-68
2021/03/21 02:11:36;;;;;;;2.90;2.33;;;;;;;4.88;78.29;101073.63;5026977;28;20289;-68
2021/03/21 02:14:12;;;;;;;2.40;2.20;;;;;;;4.88;78.34;101063.94;5027243;28;20692;-67
2021/03/21 02:16:53;;;;;;;2.50;2.30;;;;;;;4.87;79.15;101059.56;5032435;28;20680;-68
2021/03/21 02:19:48;;;;;;;2.93;2.63;;;;;;;4.86;78.69;101051.72;5028810;28;20611;-70
2021/03/21 02:22:23;;;;;;;2.90;2.70;;;;;;;4.86;79.24;101046.44;5024579;28;20698;-69
2021/03/21 02:25:14;;;;;;;3.63;3.00;;;;;;;4.84;79.32;101038.56;5032233;28;20309;-67
2021/03/21 02:27:50;;;;;;;3.50;3.20;;;;;;;4.85;79.47;101045.56;5033478;28;20569;-67
2021/03/21 02:30:21;;;;;;;4.43;3.10;;;;;;;4.86;78.97;101039.38;5028075;28;20202;-67
2021/03/21 02:32:56;;;;;;;3.43;3.13;;;;;;;4.86;79.26;101026.19;5031564;28;20226;-67
2021/03/21 02:35:29;;;;;;;4.03;3.63;;;;;;;4.88;79.33;101032.28;5028965;28;20271;-67
2021/03/21 02:38:03;;;;;;;4.03;3.00;;;;;;;4.90;79.74;101024.31;5033519;28;20288;-67
2021/03/21 02:40:34;;;;;;;4.30;3.80;;;;;;;4.91;79.72;101014.59;5032357;28;20206;-67
2021/03/21 02:43:07;;;;;;;3.97;3.53;;;;;;;4.92;79.90;101022.47;5030915;28;20774;-67
2021/03/21 02:45:36;;;;;;;4.77;3.47;;;;;;;4.94;80.17;101017.16;5032375;28;20285;-68
2021/03/21 02:48:09;;;;;;;4.23;3.37;;;;;;;4.95;79.96;101021.50;5032668;28;20239;-67
2021/03/21 02:50:39;;;;;;;3.80;3.50;;;;;;;4.95;79.71;101005.69;5024958;28;20568;-67
2021/03/21 02:53:12;;;;;;;3.90;3.40;;;;;;;4.94;80.08;101004.81;5026387;28;20239;-68
2021/03/21 02:55:42;;;;;;;3.43;3.13;;;;;;;4.96;80.12;101002.13;5030900;28;20199;-68
2021/03/21 02:58:14;;;;;;;3.97;3.33;;;;;;;4.95;80.47;101003.91;5032533;28;20233;-68
2021/03/21 03:00:46;;;;;;;4.13;3.73;;;;;;;4.96;80.54;100996.84;5030992;28;20652;-67
2021/03/21 03:03:16;;;;;;;3.90;3.43;;;;;;;4.96;80.49;101000.34;5030785;28;20226;-67
2021/03/21 03:05:44;;;;;;;3.77;3.47;;;;;;;4.97;80.25;100998.56;5031048;28;20579;-67
2021/03/21 03:08:15;;;;;;;4.17;3.73;;;;;;;4.97;80.33;100995.94;5031862;28;20202;-70
2021/03/21 03:10:45;;;;;;;4.40;4.00;;;;;;;4.96;80.52;100995.06;5030426;28;20698;-66
2021/03/21 03:13:20;;;;;;;4.57;4.10;;;;;;;4.97;80.35;100980.97;5031842;28;20317;-66
2021/03/21 03:15:48;;;;;;;4.73;3.93;;;;;;;4.97;80.71;100988.88;5026444;28;20223;-67
2021/03/21 03:18:27;;;;;;;5.23;4.73;;;;;;;4.96;80.63;100981.88;5027555;28;20210;-68
2021/03/21 03:21:01;;;;;;;4.93;4.23;;;;;;;4.98;81.13;100982.69;5024726;28;20299;-67
2021/03/21 03:23:33;;;;;;;5.33;4.20;;;;;;;4.99;81.22;100981.78;5030839;28;20765;-67
2021/03/21 03:26:06;;;;;;;4.87;4.37;;;;;;;5.00;81.18;100969.44;5027364;28;20202;-67
2021/03/21 03:28:38;;;;;;;6.00;4.73;;;;;;;5.01;81.25;100973.81;5028604;28;20202;-69
2021/03/21 03:31:11;;;;;;;5.03;4.47;;;;;;;5.00;81.30;100962.38;5029557;28;20202;-68
2021/03/21 03:33:38;;;;;;;5.87;4.60;;;;;;;5.00;81.16;100958.88;5029767;28;20627;-68
2021/03/21 03:36:07;;;;;;;5.40;4.53;;;;;;;5.01;80.97;100960.59;5024251;28;20747;-67
2021/03/21 03:38:34;;;;;;;5.93;5.20;;;;;;;5.00;81.53;100964.16;5030143;28;20513;-68
2021/03/21 03:41:06;;;;;;;5.47;4.70;;;;;;;5.01;81.21;100957.97;5030308;28;20225;-68
2021/03/21 03:43:43;;;;;;;5.60;5.00;;;;;;;5.01;81.44;100952.69;5029703;28;20233;-68
2021/03/21 03:46:18;;;;;;;7.73;5.20;;;;;;;5.01;81.58;100950.03;5022870;28;20212;-68
2021/03/21 03:48:54;;;;;;;5.83;4.63;;;;;;;5.00;81.29;100956.25;5029603;28;20201;-68
2021/03/21 03:51:31;;;;;;;5.37;4.60;;;;;;;5.00;81.57;100948.31;5026172;28;20261;-68
2021/03/21 03:54:12;;;;;;;5.30;4.77;;;;;;;5.00;81.44;100941.25;5018164;28;20966;-67
2021/03/21 03:56:51;;;;;;;6.10;5.10;;;;;;;5.01;81.52;100936.84;5025820;28;20240;-66
2021/03/21 03:59:31;;;;;;;5.47;4.73;;;;;;;5.00;82.11;100935.13;5030938;28;20685;-68
2021/03/21 04:02:05;;;;;;;5.37;4.43;;;;;;;5.01;82.16;100936.84;5030143;28;20205;-68
2021/03/21 04:04:37;;;;;;;5.57;4.70;;;;;;;5.01;81.76;100924.50;5027674;28;20200;-69
2021/03/21 04:07:11;;;;;;;5.70;4.40;;;;;;;5.01;82.07;100921.88;5025684;28;20289;-68
2021/03/21 04:09:47;;;;;;;4.90;4.40;;;;;;;5.04;82.51;100924.38;5030280;28;20214;-68
2021/03/21 04:12:16;;;;;;;4.53;4.13;;;;;;;5.05;82.09;100919.97;5031231;28;20234;-68
2021/03/21 04:14:46;;;;;;;5.00;4.27;;;;;;;5.06;82.53;100919.03;5030747;28;20230;-68
2021/03/21 04:17:18;;;;;;;4.80;3.90;;;;;;;5.08;82.60;100927.78;5029864;28;20208;-69
2021/03/21 04:19:51;;;;;;;5.17;3.73;;;;;;;5.09;82.28;100930.34;5030250;28;20206;-68
2021/03/21 04:22:21;;;;;;;4.73;3.97;;;;;;;5.11;82.71;100920.59;5030925;28;20253;-67
2021/03/21 04:24:51;;;;;;;4.87;3.43;;;;;;;5.14;82.61;100917.00;5029966;28;20203;-70
2021/03/21 04:27:23;;;;;;;4.37;3.90;;;;;;;5.15;82.10;100903.75;5031139;28;20285;-69
2021/03/21 04:29:54;;;;;;;4.07;3.27;;;;;;;5.18;82.67;100908.06;5029868;28;20221;-69
2021/03/21 04:32:26;;;;;;;3.87;3.47;;;;;;;5.19;82.56;100904.50;5026819;28;20226;-67
2021/03/21 04:34:56;;;;;;;4.60;3.50;;;;;;;5.20;82.81;100909.69;5028716;28;20344;-69
2021/03/21 04:37:23;;;;;;;4.40;3.63;;;;;;;5.23;82.47;100906.09;5027023;28;20207;-69
2021/03/21 04:39:53;;;;;;;3.97;3.37;;;;;;;5.25;82.51;100914.81;5028975;28;20232;-68
2021/03/21 04:42:24;;;;;;;5.30;3.70;;;;;;;5.26;82.69;100916.53;5022160;28;20234;-69
2021/03/21 04:44:56;;;;;;;3.83;2.93;;;;;;;5.28;82.66;100905.91;5025411;28;20202;-68
2021/03/21 04:47:28;;;;;;;3.10;2.80;;;;;;;5.28;82.83;100898.84;5030469;28;20206;-71
2021/03/21 04:49:55;;;;;;;3.70;3.10;;;;;;;5.30;82.55;100899.66;5019107;28;20393;-67
2021/03/21 04:52:33;;;;;;;3.40;2.73;;;;;;;5.31;83.23;100893.47;5029978;28;20248;-67
2021/03/21 04:55:03;;;;;;;3.03;2.70;;;;;;;5.33;83.26;100891.63;5028882;28;20222;-68
2021/03/21 04:57:37;;;;;;;3.77;2.73;;;;;;;5.35;83.07;100897.72;5026525;28;20214;-70
2021/03/21 05:00:09;;;;;;;3.00;2.60;;;;;;;5.36;82.99;100883.59;5019873;28;20577;-67
2021/03/21 05:02:38;;;;;;;2.13;1.87;;;;;;;5.39;82.74;100888.72;5026085;28;20309;-68
2021/03/21 05:05:10;;;;;;;2.13;1.90;;;;;;;5.41;82.95;100875.47;5030389;28;20653;-68
2021/03/21 05:07:43;;;;;;;2.13;1.70;;;;;;;5.43;83.01;100868.34;5028528;28;20208;-68
2021/03/21 05:10:16;;;;;;;1.83;1.63;;;;;;;5.45;83.18;100859.47;5030740;28;20285;-68
2021/03/21 05:12:46;;;;;;;2.63;1.57;;;;;;;5.47;82.97;100840.91;5028280;28;20317;-68
2021/03/21 05:15:21;;;;;;;1.90;1.37;;;;;;;5.47;83.16;100848.84;5029206;28;20457;-67
2021/03/21 05:17:57;;;;;;;1.80;1.30;;;;;;;5.48;82.90;100854.06;5033590;28;20284;-68
2021/03/21 05:20:31;;;;;;;1.53;1.37;;;;;;;5.50;82.98;100861.94;5034277;28;20592;-67
2021/03/21 05:23:17;;;;;;;1.40;1.30;;;;;;;5.51;83.00;100858.38;5032733;28;20217;-68
2021/03/21 05:25:47;;;;;;;1.57;1.30;;;;;;;5.52;83.04;100833.66;5033897;28;20699;-68
2021/03/21 05:28:21;;;;;;;1.83;1.40;;;;;;;5.51;83.00;100864.50;5027713;28;20247;-67
2021/03/21 05:30:48;;;;;;;2.20;1.47;;;;;;;5.52;82.68;100865.38;5029788;28;20606;-68
2021/03/21 05:33:15;;;;;;;1.47;1.30;;;;;;;5.54;82.51;100872.31;5032245;28;20609;-67
2021/03/21 05:35:41;;;;;;;2.30;1.60;;;;;;;5.54;82.67;100871.47;5033469;28;20212;-67
2021/03/21 05:38:35;;;;;;;1.60;1.40;;;;;;;5.53;82.41;100875.88;5030099;28;20210;-68
2021/03/21 05:41:52;;;;;;;2.73;1.53;;;;;;;5.53;82.34;100864.44;5033832;28;20263;-67
2021/03/21 05:44:55;;;;;;;2.13;1.30;;;;;;;5.53;82.16;100881.16;5050365;22;20598;-65
2021/03/21 05:47:54;;;;;;;3.10;1.40;;;;;;;5.53;81.95;100860.03;5021888;28;20210;-64
2021/03/21 05:51:09;;;;;;;4.83;1.80;;;;;;;5.52;81.53;100863.59;5021946;28;20202;-65
2021/03/21 05:54:08;;;;;;;3.07;1.30;;;;;;;5.52;81.42;100865.38;5016243;28;20325;-64
2021/03/21 05:56:49;;;;;;;3.20;1.30;;;;;;;5.49;81.15;100861.06;5012148;28;20219;-64
2021/03/21 05:59:29;;;;;;;2.43;1.30;;;;;;;5.47;81.38;100854.97;5007895;28;20213;-64
2021/03/21 06:02:20;;;;;;;4.33;1.10;;;;;;;5.47;80.89;100864.69;5012474;28;20225;-64
2021/03/21 06:05:25;;;;;;;3.00;1.50;;;;;;;5.47;80.53;100862.91;5013913;28;20205;-64
2021/03/21 06:08:22;;;;;;;2.43;1.03;;;;;;;5.48;80.31;100869.03;4995461;28;20213;-65
2021/03/21 06:11:25;;;;;;;2.37;0.80;;;;;;;5.47;80.10;100876.09;5010201;28;20207;-65
2021/03/21 06:14:10;;;;;;;2.13;0.83;;;;;;;5.48;79.29;100869.03;5007860;28;20226;-65
2021/03/21 06:17:07;;;;;;;2.33;1.00;;;;;;;5.49;78.96;100881.34;5011411;28;20207;-65
2021/03/21 06:20:03;;;;;;;3.10;0.93;;;;;;;5.51;78.65;100875.09;5010502;28;20232;-65
2021/03/21 06:22:58;;;;;;;3.23;0.90;;;;;;;5.53;78.40;100872.38;5013059;28;20307;-64
2021/03/21 06:25:43;;;;;;;1.80;1.00;;;;;;;5.57;78.43;100876.59;5008744;28;20889;-64
2021/03/21 06:28:37;;;;;;;2.80;1.00;;;;;;;5.58;78.76;100871.25;5010466;28;20211;-65
2021/03/21 06:31:51;;;;;;;3.50;1.60;;;;;;;5.61;78.43;100872.94;5006561;28;20842;-64
2021/03/21 06:34:26;;;;;;;3.73;1.60;;;;;;;5.62;78.39;100879.94;5011804;28;20236;-65
2021/03/21 06:36:58;;;;;;;4.40;1.47;;;;;;;5.64;78.67;100864.88;5010669;28;20198;-65
2021/03/21 06:40:10;;;;;;;3.43;1.63;;;;;;;5.64;78.59;100864.88;5012005;28;20223;-65
2021/03/21 06:43:03;;;;;;;1.83;1.57;;;;;;;5.65;78.61;100869.25;5009619;28;20235;-64
2021/03/21 06:46:00;;;;;;;3.50;1.60;;;;;;;5.66;78.84;100885.97;5011390;28;20291;-65
2021/03/21 06:48:47;;;;;;;2.73;1.50;;;;;;;5.66;79.12;100880.69;5006239;28;20591;-65
2021/03/21 06:51:26;;;;;;;3.03;1.50;;;;;;;5.65;79.20;100882.47;5010297;28;20636;-64
2021/03/21 06:54:00;;;;;;;2.70;1.60;;;;;;;5.64;79.23;100891.31;5010161;28;20714;-63
2021/03/21 06:56:52;;;;;;;4.40;1.90;;;;;;;5.64;79.18;100904.50;5003875;28;20298;-65
2021/03/21 07:00:02;;;;;;;3.87;2.10;;;;;;;5.66;79.45;100915.03;5009743;28;20214;-64
2021/03/21 07:03:04;;;;;;;4.07;2.43;;;;;;;5.62;79.72;100897.56;5009907;28;20218;-64
2021/03/21 07:06:02;;;;;;;5.47;1.73;;;;;;;5.59;79.64;100912.59;5009007;28;20306;-65
2021/03/21 07:09:02;;;;;;;2.97;1.70;;;;;;;5.59;79.85;100915.25;5003256;28;20210;-65
2021/03/21 07:11:45;;;;;;;5.90;1.80;;;;;;;5.56;79.64;100909.22;5002897;28;20759;-64
2021/03/21 07:14:39;;;;;;;3.33;1.70;;;;;;;5.57;79.98;100919.72;5010969;28;20253;-64
2021/03/21 07:17:40;;;;;;;2.00;1.23;;;;;;;5.54;80.25;100911.94;5010676;28;20732;-64
2021/03/21 07:20:39;;;;;;;4.07;2.20;;;;;;;5.50;79.82;100920.91;5010049;28;20688;-64
2021/03/21 07:23:37;;;;;;;6.00;1.60;;;;;;;5.48;79.88;100928.03;5008052;28;20230;-64
2021/03/21 07:26:23;;;;;;;4.60;1.87;;;;;;;5.47;80.19;100933.38;5004893;28;20492;-64
2021/03/21 07:29:26;;;;;;;7.03;2.07;;;;;;;5.46;79.73;100929.00;5000855;28;20205;-65
2021/03/21 07:32:11;;;;;;;7.50;2.07;;;;;;;5.43;79.54;100932.59;5002754;28;20225;-64
2021/03/21 07:35:02;;;;;;;6.80;2.23;;;;;;;5.43;79.40;100929.97;5005542;28;20226;-64
2021/03/21 07:37:41;;;;;;;8.20;2.60;;;;;;;5.45;79.25;100922.00;5009603;28;20211;-64
2021/03/21 07:40:27;;;;;;;5.57;2.10;;;;;;;5.44;79.05;100938.75;5009398;28;20206;-64
2021/03/21 07:43:09;;;;;;;4.73;2.13;;;;;;;5.45;78.92;100943.13;5008168;28;20230;-64
2021/03/21 07:46:02;;;;;;;12.63;3.37;;;;;;;5.46;78.59;100944.84;5008966;28;20264;-64
2021/03/21 07:48:39;;;;;;;8.23;3.17;;;;;;;5.46;78.17;100945.72;5008466;28;20207;-64
2021/03/21 07:51:09;;;;;;;8.17;3.00;;;;;;;5.46;77.80;100955.41;5007953;28;20202;-65
2021/03/21 07:53:42;;;;;;;10.40;2.60;;;;;;;5.46;78.02;100950.13;5007364;28;20230;-64
2021/03/21 07:56:14;;;;;;;8.43;2.77;;;;;;;5.48;77.28;100958.84;5008397;28;20216;-64
2021/03/21 07:58:46;;;;;;;9.60;2.00;;;;;;;5.50;77.53;100955.25;5009312;28;20268;-64
2021/03/21 08:01:12;;;;;;;9.20;2.60;;;;;;;5.50;77.18;100957.03;5007613;28;20261;-64
2021/03/21 08:03:46;;;;;;;13.20;2.63;;;;;;;5.51;76.94;100949.03;5008766;28;20257;-64
2021/03/21 08:06:17;;;;;;;6.63;2.67;;;;;;;5.52;76.61;100948.13;5012343;28;20582;-64
2021/03/21 08:08:50;;;;;;;15.07;3.40;;;;;;;5.53;76.21;100936.66;5011810;28;20216;-64
2021/03/21 08:11:19;;;;;;;11.40;3.40;;;;;;;5.52;75.80;100945.50;5012638;28;20210;-64
2021/03/21 08:13:49;;;;;;;15.67;3.20;;;;;;;5.49;75.66;100948.25;5009331;28;21044;-64
2021/03/21 08:16:22;;;;;;;17.93;4.03;;;;;;;5.46;75.45;100932.50;5009323;28;20303;-64
2021/03/21 08:18:49;;;;;;;24.57;3.50;;;;;;;5.42;74.89;100949.38;5010234;28;20202;-64
2021/03/21 08:21:18;;;;;;;17.83;3.87;;;;;;;5.40;74.60;100950.34;5009563;28;20668;-64
2021/03/21 08:23:50;;;;;;;16.53;3.50;;;;;;;5.39;74.50;100952.13;5009946;28;20227;-64
2021/03/21 08:26:25;;;;;;;20.37;3.80;;;;;;;5.36;73.90;100954.91;5007758;28;20573;-64
2021/03/21 08:29:08;;;;;;;16.77;3.80;;;;;;;5.36;73.50;100944.34;5010610;28;20270;-64
2021/03/21 08:31:38;;;;;;;26.77;4.10;;;;;;;5.34;73.10;100932.09;5009983;28;20234;-64
2021/03/21 08:34:25;;;;;;;15.30;4.77;;;;;;;5.35;73.50;100937.34;5009484;28;20270;-64
2021/03/21 08:36:51;;;;;;;17.43;3.40;;;;;;;5.38;72.88;100931.91;5008001;28;20261;-64
2021/03/21 08:39:26;;;;;;;18.27;4.27;;;;;;;5.38;72.36;100934.56;5006866;28;20210;-64
2021/03/21 08:41:56;;;;;;;20.17;4.07;;;;;;;5.39;72.22;100933.63;5002525;28;20742;-64
2021/03/21 08:44:30;;;;;;;15.50;4.40;;;;;;;5.40;72.15;100927.44;5001527;28;20300;-65
2021/03/21 08:46:57;;;;;;;18.60;4.17;;;;;;;5.42;71.69;100920.31;5002734;28;20347;-64
2021/03/21 08:49:27;;;;;;;20.00;4.37;;;;;;;5.43;71.87;100922.03;5005000;28;20208;-59
2021/03/21 08:51:54;;;;;;;15.67;4.43;;;;;;;5.44;71.90;100923.78;5010132;28;20249;-64
2021/03/21 08:54:26;;;;;;;20.90;5.30;;;;;;;5.44;71.27;100920.25;5011263;28;20236;-63
2021/03/21 08:57:04;;;;;;;20.43;5.03;;;;;;;5.46;71.50;100919.28;5008829;28;20225;-63
2021/03/21 08:59:36;;;;;;;20.97;3.97;;;;;;;5.46;70.91;100923.72;5006244;28;20411;-64
2021/03/21 09:02:07;;;;;;;22.27;4.57;;;;;;;5.46;70.91;100935.16;5007945;28;20202;-64
2021/03/21 09:04:35;;;;;;;24.03;5.37;;;;;;;5.46;70.63;100947.50;5008713;28;20203;-64
2021/03/21 09:07:23;;;;;;;16.83;4.67;;;;;;;5.47;70.20;100941.28;5010788;28;20207;-64
2021/03/21 09:10:33;;;;;;;21.53;4.60;;;;;;;5.47;70.49;100947.44;5009806;28;20202;-64
2021/03/21 09:13:18;;;;;;;18.23;3.60;;;;;;;5.49;70.08;100942.97;4971755;28;20222;-64
2021/03/21 09:15:46;;;;;;;17.93;4.87;;;;;;;5.50;69.91;100935.91;5012503;28;20217;-64
2021/03/21 09:18:24;;;;;;;27.03;5.10;;;;;;;5.52;69.85;100937.56;5009751;28;20618;-64
2021/03/21 09:21:18;;;;;;;19.30;4.33;;;;;;;5.54;70.05;100948.06;5011287;28;20570;-64
2021/03/21 09:24:06;;;;;;;23.23;4.57;;;;;;;5.55;69.79;100955.91;5006746;28;20293;-64
2021/03/21 09:26:40;;;;;;;20.00;4.60;;;;;;;5.56;69.37;100962.06;5006407;28;20261;-63
2021/03/21 09:29:36;;;;;;;15.40;4.57;;;;;;;5.59;69.57;100961.94;5005171;28;20642;-64
2021/03/21 09:32:09;;;;;;;19.30;4.30;;;;;;;5.62;69.43;100950.41;5009159;28;20202;-65
2021/03/21 09:34:58;;;;;;;24.20;4.80;;;;;;;5.66;69.58;100959.94;5006929;28;20309;-63
2021/03/21 09:37:29;;;;;;;23.60;5.20;;;;;;;5.70;69.36;100965.06;5011435;28;20203;-64
2021/03/21 09:40:02;;;;;;;18.90;3.53;;;;;;;5.75;68.96;100951.66;5010701;28;20203;-64
2021/03/21 09:42:29;;;;;;;25.47;4.63;;;;;;;5.77;68.77;100963.03;5012405;28;20277;-64
2021/03/21 09:44:56;;;;;;;22.60;4.70;;;;;;;5.79;68.76;100961.19;5010448;28;20207;-64
2021/03/21 09:47:30;;;;;;;22.60;4.23;;;;;;;5.82;68.45;100979.56;5011558;28;20289;-64
2021/03/21 09:50:10;;;;;;;34.07;6.83;;;;;;;5.85;68.38;100975.03;5008923;28;20625;-64
2021/03/21 09:52:42;;;;;;;26.57;5.67;;;;;;;5.89;68.42;100966.13;5008856;28;20218;-64
2021/03/21 09:55:18;;;;;;;15.07;5.27;;;;;;;5.95;67.97;100972.06;5009347;28;20234;-63
2021/03/21 09:58:29;;;;;;;21.37;4.53;;;;;;;5.97;67.97;100971.09;5008835;28;20294;-64
2021/03/21 10:01:02;;;;;;;32.60;5.40;;;;;;;6.00;67.78;100967.47;4968282;28;20214;-63
2021/03/21 10:03:32;;;;;;;21.93;3.63;;;;;;;6.03;67.94;100981.44;5008091;28;20225;-64
2021/03/21 10:06:04;;;;;;;33.63;5.73;;;;;;;6.03;67.90;100968.22;5011898;28;20261;-64
2021/03/21 10:08:49;;;;;;;25.10;4.43;;;;;;;6.08;67.87;100976.81;5011050;28;20206;-64
2021/03/21 10:11:23;;;;;;;21.83;5.73;;;;;;;6.12;67.75;100981.06;5009515;28;20202;-64
2021/03/21 10:13:50;;;;;;;20.23;4.77;;;;;;;6.17;67.38;100968.50;5012555;28;20646;-64
2021/03/21 10:16:19;;;;;;;24.73;5.37;;;;;;;6.18;67.54;100993.19;5012512;28;20261;-63
2021/03/21 10:18:48;;;;;;;29.43;5.57;;;;;;;6.20;66.82;100991.34;5011680;28;20203;-64
2021/03/21 10:21:29;;;;;;;24.93;5.30;;;;;;;6.21;66.53;100985.13;5007103;28;21646;-64
2021/03/21 10:24:34;;;;;;;21.90;5.20;;;;;;;6.22;66.96;100987.72;5010773;28;20226;-64
2021/03/21 10:27:38;;;;;;;31.67;5.67;;;;;;;6.26;67.14;101001.69;5009784;28;20665;-64
2021/03/21 10:30:14;;;;;;;30.90;5.63;;;;;;;6.31;66.81;100993.53;5010552;28;20213;-59
2021/03/21 10:32:42;;;;;;;16.50;4.20;;;;;;;6.34;66.80;100988.13;5010129;28;20226;-63
2021/03/21 10:35:34;;;;;;;25.20;5.40;;;;;;;6.35;66.60;100989.84;5010221;28;20233;-64
2021/03/21 10:38:03;;;;;;;22.30;5.07;;;;;;;6.35;66.41;101003.94;5011804;28;20214;-63
2021/03/21 10:40:42;;;;;;;20.83;4.70;;;;;;;6.38;66.78;100987.09;5011102;28;20207;-64
2021/03/21 10:43:28;;;;;;;32.30;4.90;;;;;;;6.42;67.10;100981.63;5009142;28;20277;-64
2021/03/21 10:45:56;;;;;;;27.03;6.67;;;;;;;6.45;66.60;100985.94;5010821;28;20206;-64
2021/03/21 10:48:51;;;;;;;20.87;4.93;;;;;;;6.46;66.47;100987.63;5011485;28;20203;-63
2021/03/21 10:51:18;;;;;;;22.03;5.43;;;;;;;6.43;66.26;100978.06;5012677;28;20297;-64
2021/03/21 10:54:17;;;;;;;17.17;4.83;;;;;;;6.43;66.26;100987.78;5010883;28;20254;-64
2021/03/21 10:57:03;;;;;;;29.47;5.87;;;;;;;6.41;66.19;100993.13;4954045;28;20893;-63
2021/03/21 10:59:31;;;;;;;26.37;5.43;;;;;;;6.39;66.31;100991.47;5011870;28;20210;-64
2021/03/21 11:02:21;;;;;;;28.27;5.27;;;;;;;6.41;65.92;100992.25;5012361;28;20513;-63
2021/03/21 11:05:00;;;;;;;22.37;4.87;;;;;;;6.42;66.10;101000.13;5011370;28;20219;-63
2021/03/21 11:07:26;;;;;;;27.27;5.47;;;;;;;6.43;65.84;101001.00;5010659;28;20202;-63
2021/03/21 11:09:56;;;;;;;26.03;4.97;;;;;;;6.45;65.89;101001.81;5015295;28;20642;-63
2021/03/21 11:12:34;;;;;;;27.17;5.77;;;;;;;6.48;66.02;100997.22;5019494;28;20302;-63
2021/03/21 11:15:28;;;;;;;21.37;5.47;;;;;;;6.49;66.12;100996.31;5005590;28;20226;-63
2021/03/21 11:18:00;;;;;;;17.53;5.47;;;;;;;6.52;65.96;100998.81;5006480;28;20863;-63
2021/03/21 11:20:30;;;;;;;23.73;5.30;;;;;;;6.53;65.80;100995.25;5018756;28;20299;-64
2021/03/21 11:22:57;;;;;;;26.80;4.93;;;;;;;6.56;66.12;100996.91;5017199;28;20264;-64
2021/03/21 11:25:31;;;;;;;30.33;5.63;;;;;;;6.61;65.86;100992.31;5015263;28;20281;-64
2021/03/21 11:27:57;;;;;;;27.77;5.83;;;;;;;6.62;65.59;100994.03;5009897;28;20724;-64
2021/03/21 11:30:29;;;;;;;26.13;6.07;;;;;;;6.63;65.61;100998.38;5011182;28;20210;-64
2021/03/21 11:32:56;;;;;;;21.70;5.07;;;;;;;6.65;65.49;100998.31;5020848;28;20257;-64
2021/03/21 11:35:25;;;;;;;20.47;4.63;;;;;;;6.67;65.44;100996.47;5018301;28;20230;-64
2021/03/21 11:37:55;;;;;;;27.27;6.40;;;;;;;6.70;65.59;101001.63;5010418;28;20287;-64
2021/03/21 11:40:26;;;;;;;29.27;6.03;;;;;;;6.75;65.38;100994.38;5009833;28;20298;-64
2021/03/21 11:43:07;;;;;;;23.13;5.77;;;;;;;6.77;65.62;101001.31;5055851;22;20567;-67
2021/03/21 11:45:37;;;;;;;24.63;5.63;;;;;;;6.81;65.48;100994.09;5037570;28;20234;-66
2021/03/21 11:48:15;;;;;;;22.00;4.93;;;;;;;6.82;65.04;101001.97;5029334;28;20206;-68
2021/03/21 11:50:44;;;;;;;30.83;5.73;;;;;;;6.85;65.49;100988.59;5032647;28;20203;-69
2021/03/21 11:53:16;;;;;;;32.47;5.70;;;;;;;6.88;65.59;100990.28;5019132;28;20751;-67
2021/03/21 11:55:44;;;;;;;27.10;5.10;;;;;;;6.92;65.27;100989.22;5014229;28;20381;-67
2021/03/21 11:58:17;;;;;;;20.37;4.60;;;;;;;6.96;65.26;100994.31;5004247;28;20644;-67
2021/03/21 12:00:54;;;;;;;25.63;5.80;;;;;;;6.97;64.72;100985.47;5004151;28;20203;-67
2021/03/21 12:03:23;;;;;;;24.23;6.47;;;;;;;6.99;64.40;100987.19;5006842;28;20313;-69
2021/03/21 12:05:59;;;;;;;24.13;5.70;;;;;;;6.97;63.91;100993.41;5005589;28;20210;-66
2021/03/21 12:08:31;;;;;;;27.10;5.50;;;;;;;6.96;63.90;100988.16;5010924;28;20206;-67
2021/03/21 12:10:58;;;;;;;29.23;5.63;;;;;;;6.98;64.30;100999.56;5005808;28;20198;-67